Time;durP1;ratioP1;P1;durP2;ratioP2;P2;SDS_P1;SDS_P2;PMS_P1;PMS_P2;Temp;Humidity;BMP_temperature;BMP_pressure;BME280_temperature;BME280_humidity;BME280_pressure;Samples;Min_cycle;Max_cycle;Signal;HPM_P1;HPM_P2
2023/03/09 00:00:55;;;;;;;81.22;36.25;;;3.90;99.90;;;;;;4993866;28;20097;-72
2023/03/09 00:03:22;;;;;;;87.55;36.30;;;3.90;99.90;;;;;;5009743;28;20047;-72
2023/03/09 00:05:56;;;;;;;107.65;41.05;;;3.90;99.90;;;;;;5015949;28;20487;-72
2023/03/09 00:08:22;;;;;;;83.93;35.47;;;3.80;99.90;;;;;;4993074;28;20026;-72
2023/03/09 00:10:51;;;;;;;80.55;34.00;;;3.80;99.90;;;;;;5000536;28;20038;-72
2023/03/09 00:13:17;;;;;;;89.68;35.70;;;3.90;99.90;;;;;;4991090;28;20022;-72
2023/03/09 00:15:44;;;;;;;92.22;36.10;;;3.90;99.90;;;;;;4987154;28;20118;-72
2023/03/09 00:18:10;;;;;;;90.43;36.67;;;3.80;99.90;;;;;;4993913;28;20042;-72
2023/03/09 00:20:37;;;;;;;92.20;35.33;;;3.80;99.90;;;;;;4994192;28;20026;-72
2023/03/09 00:23:08;;;;;;;91.03;36.88;;;3.90;99.90;;;;;;4999470;28;20045;-71
2023/03/09 00:25:34;;;;;;;78.70;33.95;;;3.90;99.90;;;;;;4993829;28;20623;-72
2023/03/09 00:28:00;;;;;;;93.68;36.55;;;3.80;99.90;;;;;;5002944;28;20018;-72
2023/03/09 00:30:26;;;;;;;85.10;35.03;;;3.80;99.90;;;;;;4996130;28;20096;-72
2023/03/09 00:32:53;;;;;;;84.35;34.45;;;3.80;99.90;;;;;;5001351;28;20470;-72
2023/03/09 00:35:19;;;;;;;87.40;34.60;;;3.80;99.90;;;;;;4995317;28;20039;-72
2023/03/09 00:37:46;;;;;;;107.80;36.78;;;3.80;99.90;;;;;;4998736;28;20035;-72
2023/03/09 00:40:14;;;;;;;127.10;40.45;;;3.70;99.90;;;;;;5000513;28;20471;-72
2023/03/09 00:42:44;;;;;;;81.55;34.28;;;3.60;99.90;;;;;;4996159;28;20087;-71
2023/03/09 00:45:11;;;;;;;85.35;34.95;;;3.60;99.90;;;;;;5010008;28;20091;-72
2023/03/09 00:47:37;;;;;;;94.35;35.15;;;3.60;99.90;;;;;;4996613;28;20470;-72
2023/03/09 00:50:04;;;;;;;94.47;35.25;;;3.70;99.90;;;;;;4998376;28;20032;-72
2023/03/09 00:52:30;;;;;;;86.78;34.17;;;3.80;99.90;;;;;;5001299;28;20434;-73
2023/03/09 00:54:56;;;;;;;86.20;34.60;;;3.80;99.90;;;;;;4999009;28;20101;-72
2023/03/09 00:57:23;;;;;;;97.10;36.95;;;3.90;99.90;;;;;;5010422;28;20125;-72
2023/03/09 00:59:51;;;;;;;89.78;35.22;;;3.90;99.90;;;;;;5016733;28;20026;-73
2023/03/09 01:02:21;;;;;;;103.95;37.20;;;3.90;99.90;;;;;;5010311;28;20024;-72
2023/03/09 01:04:47;;;;;;;95.13;37.33;;;3.90;99.90;;;;;;4994150;28;20483;-72
2023/03/09 01:07:13;;;;;;;96.10;36.70;;;3.90;99.90;;;;;;5009733;28;20540;-72
2023/03/09 01:09:39;;;;;;;93.05;36.83;;;3.90;99.90;;;;;;5001607;28;20105;-72
2023/03/09 01:12:06;;;;;;;98.68;38.17;;;3.90;99.90;;;;;;5002498;28;20031;-72
2023/03/09 01:14:33;;;;;;;101.25;37.38;;;4.00;99.90;;;;;;5013316;28;20387;-72
2023/03/09 01:16:58;;;;;;;92.20;36.85;;;4.00;99.90;;;;;;5079772;28;20030;-73
2023/03/09 01:19:24;;;;;;;99.05;37.67;;;4.10;99.90;;;;;;5004318;28;20545;-73
2023/03/09 01:21:50;;;;;;;100.85;38.03;;;4.10;99.90;;;;;;5010661;28;20432;-73
2023/03/09 01:24:15;;;;;;;110.22;38.17;;;4.10;99.90;;;;;;5000812;28;20046;-73
2023/03/09 01:26:41;;;;;;;101.22;39.80;;;4.20;99.90;;;;;;4997855;28;20023;-73
2023/03/09 01:29:06;;;;;;;99.10;38.20;;;4.10;99.90;;;;;;4995147;28;20535;-73
2023/03/09 01:31:32;;;;;;;93.43;37.60;;;4.10;99.90;;;;;;4998413;28;20073;-73
2023/03/09 01:33:58;;;;;;;100.10;37.67;;;4.10;99.90;;;;;;4998505;28;20034;-73
2023/03/09 01:36:24;;;;;;;111.55;41.38;;;4.10;99.90;;;;;;5004777;28;20018;-72
2023/03/09 01:38:50;;;;;;;104.10;38.72;;;4.10;99.90;;;;;;5007007;28;20045;-72
2023/03/09 01:41:17;;;;;;;98.30;35.10;;;4.20;99.90;;;;;;5016950;28;20102;-73
2023/03/09 01:43:45;;;;;;;98.55;39.90;;;4.10;99.90;;;;;;4995448;28;20053;-72
2023/03/09 01:46:25;;;;;;;101.82;38.10;;;4.10;99.90;;;;;;5010139;28;20111;-72
2023/03/09 01:49:00;;;;;;;98.22;37.90;;;4.10;99.90;;;;;;5001435;28;20076;-72
2023/03/09 01:51:48;;;;;;;103.03;37.88;;;4.10;99.90;;;;;;4986690;28;20034;-73
2023/03/09 01:54:22;;;;;;;96.93;37.92;;;4.10;99.90;;;;;;4999467;28;20130;-72
2023/03/09 01:56:53;;;;;;;91.32;37.33;;;4.20;99.90;;;;;;4997530;28;20475;-72
2023/03/09 01:59:20;;;;;;;99.07;37.97;;;4.10;99.90;;;;;;4996981;28;20045;-72
2023/03/09 02:01:45;;;;;;;99.35;38.63;;;4.20;99.90;;;;;;5018489;28;20020;-72
2023/03/09 02:04:20;;;;;;;99.80;39.28;;;4.20;99.90;;;;;;5014386;28;20406;-72
2023/03/09 02:06:46;;;;;;;100.55;39.60;;;4.10;99.90;;;;;;5016411;28;20020;-72
2023/03/09 02:09:15;;;;;;;84.03;35.17;;;4.20;99.90;;;;;;4997475;28;20088;-72
2023/03/09 02:11:42;;;;;;;95.00;36.97;;;4.20;99.90;;;;;;5016817;28;20594;-72
2023/03/09 02:14:08;;;;;;;89.05;36.25;;;4.20;99.90;;;;;;5006692;28;20041;-73
2023/03/09 02:16:34;;;;;;;87.60;34.85;;;4.20;99.90;;;;;;4997648;28;23041;-72
2023/03/09 02:19:00;;;;;;;84.57;35.22;;;4.20;99.90;;;;;;5005674;28;20031;-72
2023/03/09 02:21:50;;;;;;;94.32;36.90;;;4.20;99.90;;;;;;5000598;28;20044;-72
2023/03/09 02:24:36;;;;;;;82.72;34.45;;;4.20;99.90;;;;;;5006061;28;20142;-72
2023/03/09 02:27:10;;;;;;;80.85;36.75;;;4.20;99.90;;;;;;4998720;28;20167;-72
2023/03/09 02:29:37;;;;;;;83.40;36.60;;;4.20;99.90;;;;;;5002759;28;20027;-72
2023/03/09 02:32:02;;;;;;;84.18;34.42;;;4.20;99.90;;;;;;5003619;28;20050;-73
2023/03/09 02:34:28;;;;;;;83.93;36.10;;;4.20;99.90;;;;;;5016482;28;20111;-73
2023/03/09 02:36:54;;;;;;;124.97;38.95;;;4.20;99.90;;;;;;5009204;28;20466;-73
2023/03/09 02:39:25;;;;;;;102.50;36.63;;;4.20;99.90;;;;;;4992975;28;20034;-73
2023/03/09 02:41:54;;;;;;;174.88;42.92;;;4.10;99.90;;;;;;4990524;28;20083;-72
2023/03/09 02:44:20;;;;;;;90.25;33.83;;;4.10;99.90;;;;;;4994568;28;20111;-73
2023/03/09 02:46:46;;;;;;;101.80;34.95;;;4.10;99.90;;;;;;5003891;28;20034;-73
2023/03/09 02:49:12;;;;;;;100.20;35.78;;;4.00;99.90;;;;;;4999443;28;20038;-73
2023/03/09 02:51:37;;;;;;;86.72;36.10;;;4.10;99.90;;;;;;4979830;28;20583;-72
2023/03/09 02:54:03;;;;;;;87.93;34.33;;;4.20;99.90;;;;;;4981513;28;20035;-72
2023/03/09 02:56:29;;;;;;;101.35;37.33;;;4.20;99.90;;;;;;4986769;28;20061;-72
2023/03/09 02:58:54;;;;;;;93.85;36.28;;;4.20;99.90;;;;;;4985157;28;20030;-73
2023/03/09 03:01:20;;;;;;;116.82;39.72;;;4.20;99.90;;;;;;4982428;28;20027;-73
2023/03/09 03:03:45;;;;;;;265.30;50.80;;;4.10;99.90;;;;;;4986576;28;20483;-72
2023/03/09 03:06:11;;;;;;;93.78;35.78;;;4.00;99.90;;;;;;4999675;28;20592;-72
2023/03/09 03:08:36;;;;;;;107.30;38.40;;;4.10;99.90;;;;;;4984614;28;20042;-73
2023/03/09 03:11:02;;;;;;;185.90;47.90;;;4.00;99.90;;;;;;4979303;28;20022;-72
2023/03/09 03:13:28;;;;;;;90.47;37.20;;;4.10;99.90;;;;;;4985716;28;20459;-72
2023/03/09 03:16:00;;;;;;;88.32;34.53;;;4.10;99.90;;;;;;4981086;28;20037;-73
2023/03/09 03:18:26;;;;;;;84.18;33.33;;;4.10;99.90;;;;;;4983069;28;20097;-72
2023/03/09 03:20:52;;;;;;;93.25;35.55;;;4.20;99.90;;;;;;4975690;28;20114;-73
2023/03/09 03:23:17;;;;;;;93.22;34.97;;;4.20;99.90;;;;;;4986923;28;20034;-73
2023/03/09 03:25:43;;;;;;;95.88;34.97;;;4.20;99.90;;;;;;4984841;28;20030;-72
2023/03/09 03:28:09;;;;;;;103.50;37.58;;;4.20;99.90;;;;;;4989470;28;20486;-73
2023/03/09 03:30:35;;;;;;;87.72;34.15;;;4.30;99.90;;;;;;4999120;28;20030;-73
2023/03/09 03:33:01;;;;;;;93.78;36.50;;;4.20;99.90;;;;;;5014662;28;20109;-72
2023/03/09 03:35:26;;;;;;;97.00;36.38;;;4.20;99.90;;;;;;5003953;28;20034;-73
2023/03/09 03:37:52;;;;;;;94.47;34.92;;;4.30;99.90;;;;;;4994575;28;20026;-73
2023/03/09 03:40:19;;;;;;;88.28;35.25;;;4.30;99.90;;;;;;4998765;28;20443;-73
2023/03/09 03:42:45;;;;;;;149.93;39.63;;;4.30;99.90;;;;;;4990114;28;20437;-73
2023/03/09 03:45:10;;;;;;;93.82;37.03;;;4.30;99.90;;;;;;4986561;28;20043;-72
2023/03/09 03:47:36;;;;;;;91.65;35.58;;;4.30;99.90;;;;;;4991381;28;20031;-72
2023/03/09 03:50:02;;;;;;;88.95;35.10;;;4.30;99.90;;;;;;4988057;28;20073;-72
2023/03/09 03:52:27;;;;;;;95.60;37.80;;;4.30;99.90;;;;;;4991811;28;20030;-73
2023/03/09 03:54:53;;;;;;;81.10;33.63;;;4.20;99.90;;;;;;4988128;28;20636;-73
2023/03/09 03:57:19;;;;;;;86.60;33.88;;;4.20;99.90;;;;;;4992920;28;20367;-73
2023/03/09 03:59:44;;;;;;;86.07;33.42;;;4.20;99.90;;;;;;4990417;28;20065;-73
2023/03/09 04:02:10;;;;;;;120.30;37.50;;;4.30;99.90;;;;;;5002971;28;20046;-73
2023/03/09 04:04:35;;;;;;;78.57;31.95;;;4.20;99.90;;;;;;5006047;28;20049;-73
2023/03/09 04:07:01;;;;;;;92.97;33.30;;;4.30;99.90;;;;;;4988332;28;20031;-73
2023/03/09 04:09:27;;;;;;;126.03;39.03;;;4.30;99.90;;;;;;4997085;28;20034;-73
2023/03/09 04:11:53;;;;;;;83.78;32.08;;;4.30;99.90;;;;;;4988249;28;20030;-72
2023/03/09 04:14:19;;;;;;;85.00;32.58;;;4.30;99.90;;;;;;5013655;28;20387;-73
2023/03/09 04:16:44;;;;;;;81.75;31.45;;;4.20;99.90;;;;;;4982685;28;20023;-72
2023/03/09 04:19:10;;;;;;;86.43;31.85;;;4.20;99.90;;;;;;4993042;28;20041;-72
2023/03/09 04:21:36;;;;;;;104.15;34.33;;;4.00;99.90;;;;;;4989275;28;20396;-72
2023/03/09 04:24:01;;;;;;;75.05;29.58;;;4.10;99.90;;;;;;4993234;28;20038;-73
2023/03/09 04:26:27;;;;;;;77.00;30.60;;;4.20;99.90;;;;;;4995156;28;20038;-73
2023/03/09 04:28:52;;;;;;;75.30;30.60;;;4.00;99.90;;;;;;5000374;28;20050;-72
2023/03/09 04:31:18;;;;;;;74.97;30.45;;;4.10;99.90;;;;;;4990680;28;20018;-72
2023/03/09 04:33:44;;;;;;;107.60;34.03;;;4.10;99.90;;;;;;5002843;28;20031;-72
2023/03/09 04:36:10;;;;;;;70.22;29.23;;;4.10;99.90;;;;;;4991774;28;20022;-73
2023/03/09 04:38:36;;;;;;;71.78;29.35;;;4.10;99.90;;;;;;4992422;28;20421;-72
2023/03/09 04:41:02;;;;;;;66.93;28.02;;;4.10;99.90;;;;;;4995243;28;20042;-72
2023/03/09 04:43:28;;;;;;;78.00;29.88;;;4.10;99.90;;;;;;4998396;28;20043;-72
2023/03/09 04:45:53;;;;;;;195.45;40.92;;;4.20;99.90;;;;;;4995493;28;20403;-73
2023/03/09 04:48:19;;;;;;;75.45;29.52;;;4.10;99.90;;;;;;4985191;28;20088;-72
2023/03/09 04:50:45;;;;;;;122.18;35.05;;;4.10;99.90;;;;;;5005824;28;20114;-73
2023/03/09 04:53:11;;;;;;;76.70;29.48;;;4.20;99.90;;;;;;4982972;28;20113;-73
2023/03/09 04:55:37;;;;;;;79.38;30.02;;;4.10;99.90;;;;;;4984508;28;20566;-72
2023/03/09 04:58:04;;;;;;;78.47;30.05;;;4.20;99.90;;;;;;5001228;28;20028;-72
2023/03/09 05:00:32;;;;;;;71.25;30.33;;;4.20;99.90;;;;;;4987027;28;20031;-73
2023/03/09 05:02:58;;;;;;;74.28;29.38;;;4.20;99.90;;;;;;4987634;28;20022;-73
2023/03/09 05:05:24;;;;;;;68.18;29.73;;;4.30;99.90;;;;;;4985863;28;20514;-74
2023/03/09 05:07:49;;;;;;;90.03;32.03;;;4.30;99.90;;;;;;4999875;28;20032;-73
2023/03/09 05:10:15;;;;;;;74.90;31.58;;;4.30;99.90;;;;;;5012878;28;20245;-73
2023/03/09 05:12:41;;;;;;;67.53;29.05;;;4.20;99.90;;;;;;4993909;28;20031;-73
2023/03/09 05:15:08;;;;;;;72.55;30.52;;;4.30;99.90;;;;;;4983819;28;20096;-73
2023/03/09 05:17:34;;;;;;;77.82;30.05;;;4.30;99.90;;;;;;4991953;28;20027;-73
2023/03/09 05:20:00;;;;;;;71.95;29.02;;;4.20;99.90;;;;;;4989108;28;20041;-73
2023/03/09 05:22:25;;;;;;;70.32;29.90;;;4.20;99.90;;;;;;4987620;28;20038;-73
2023/03/09 05:24:51;;;;;;;78.50;28.83;;;4.20;99.90;;;;;;4998915;28;20038;-73
2023/03/09 05:27:17;;;;;;;75.40;29.98;;;4.20;99.90;;;;;;4980910;28;20039;-73
2023/03/09 05:29:42;;;;;;;76.35;29.48;;;4.20;99.90;;;;;;4997622;28;20025;-73
2023/03/09 05:32:08;;;;;;;79.82;31.60;;;4.30;99.90;;;;;;4986639;28;20092;-72
2023/03/09 05:34:34;;;;;;;87.32;33.83;;;4.20;99.90;;;;;;4986544;28;20440;-73
2023/03/09 05:37:00;;;;;;;153.82;39.17;;;4.20;99.90;;;;;;4987192;28;20022;-73
2023/03/09 05:39:27;;;;;;;89.53;32.42;;;4.20;99.90;;;;;;4995306;28;20023;-73
2023/03/09 05:41:53;;;;;;;82.43;32.92;;;4.10;99.90;;;;;;4992608;28;20128;-73
2023/03/09 05:44:18;;;;;;;80.75;31.90;;;4.20;99.90;;;;;;4989809;28;20461;-74
2023/03/09 05:46:44;;;;;;;79.53;32.20;;;4.20;99.90;;;;;;4992124;28;20471;-73
2023/03/09 05:49:10;;;;;;;108.40;35.33;;;4.20;99.90;;;;;;4991643;28;20026;-73
2023/03/09 05:51:36;;;;;;;90.55;34.72;;;4.20;99.90;;;;;;4988211;28;20023;-73
2023/03/09 05:54:02;;;;;;;96.18;36.10;;;4.20;99.90;;;;;;4992905;28;20153;-73
2023/03/09 05:56:27;;;;;;;86.72;35.03;;;4.20;99.90;;;;;;4998494;28;20103;-73
2023/03/09 05:58:56;;;;;;;93.38;35.33;;;4.10;99.90;;;;;;4986680;28;20030;-73
2023/03/09 06:01:23;;;;;;;93.63;36.47;;;4.20;99.90;;;;;;4995742;28;20029;-72
2023/03/09 06:03:49;;;;;;;91.53;35.75;;;4.20;99.90;;;;;;4988873;28;20041;-72
2023/03/09 06:06:15;;;;;;;97.65;37.08;;;4.20;99.90;;;;;;4998300;28;20046;-71
2023/03/09 06:08:41;;;;;;;119.93;37.83;;;4.30;99.90;;;;;;5000677;28;20057;-72
2023/03/09 06:11:08;;;;;;;105.97;36.00;;;4.20;99.90;;;;;;5001025;28;20061;-72
2023/03/09 06:13:33;;;;;;;92.97;36.15;;;4.10;99.90;;;;;;5013374;28;20038;-71
2023/03/09 06:16:03;;;;;;;95.75;35.55;;;4.20;99.90;;;;;;4980192;28;20383;-71
2023/03/09 06:18:29;;;;;;;102.68;36.90;;;4.20;99.90;;;;;;4995552;28;20024;-72
2023/03/09 06:20:58;;;;;;;109.72;36.67;;;4.20;99.90;;;;;;5000156;28;20391;-71
2023/03/09 06:23:24;;;;;;;125.45;38.83;;;4.10;99.90;;;;;;4982465;28;20027;-71
2023/03/09 06:25:49;;;;;;;104.63;36.33;;;4.00;99.90;;;;;;4993054;28;20501;-72
2023/03/09 06:28:15;;;;;;;103.70;36.47;;;4.10;99.90;;;;;;4991137;28;20035;-71
2023/03/09 06:30:41;;;;;;;100.35;36.95;;;4.20;99.90;;;;;;4997402;28;20026;-71
2023/03/09 06:33:07;;;;;;;100.40;36.33;;;4.20;99.90;;;;;;5000775;28;20110;-71
2023/03/09 06:35:34;;;;;;;112.70;39.17;;;4.30;99.90;;;;;;4999516;28;20023;-71
2023/03/09 06:38:01;;;;;;;108.50;38.95;;;4.20;99.90;;;;;;4995385;28;20083;-71
2023/03/09 06:40:28;;;;;;;123.78;39.55;;;4.30;99.90;;;;;;4999050;28;20027;-72
2023/03/09 06:42:53;;;;;;;102.40;37.60;;;4.30;99.90;;;;;;5026796;27;20449;-72
2023/03/09 06:45:21;;;;;;;110.60;38.58;;;4.20;99.90;;;;;;4991368;28;20118;-71
2023/03/09 06:47:47;;;;;;;97.28;37.83;;;4.30;99.90;;;;;;4986831;28;20027;-71
2023/03/09 06:50:13;;;;;;;131.60;40.13;;;4.30;99.90;;;;;;4989462;28;20072;-71
2023/03/09 06:52:38;;;;;;;107.72;38.65;;;4.40;99.90;;;;;;4993045;28;20031;-71
2023/03/09 06:55:05;;;;;;;111.60;39.67;;;4.40;99.90;;;;;;4984376;28;20046;-71
2023/03/09 06:57:31;;;;;;;109.93;39.85;;;4.40;99.90;;;;;;5001818;28;20031;-71
2023/03/09 06:59:57;;;;;;;141.85;43.90;;;4.40;99.90;;;;;;4992896;28;20026;-71
2023/03/09 07:02:22;;;;;;;119.07;40.78;;;4.40;99.90;;;;;;4990075;28;20031;-71
2023/03/09 07:04:48;;;;;;;139.77;42.95;;;4.40;99.90;;;;;;4993708;28;20123;-71
2023/03/09 07:07:15;;;;;;;125.50;40.60;;;4.50;99.90;;;;;;4996445;28;20080;-71
2023/03/09 07:09:41;;;;;;;116.22;40.63;;;4.50;99.90;;;;;;4999185;28;20080;-71
2023/03/09 07:12:07;;;;;;;113.65;40.63;;;4.50;99.90;;;;;;4989505;28;20018;-71
2023/03/09 07:14:32;;;;;;;151.85;44.17;;;4.50;99.90;;;;;;4988313;28;20117;-71
2023/03/09 07:16:58;;;;;;;117.25;41.30;;;4.50;99.90;;;;;;5001091;28;20022;-71
2023/03/09 07:19:24;;;;;;;123.68;41.95;;;4.60;99.90;;;;;;4990298;28;20095;-71
2023/03/09 07:21:50;;;;;;;122.15;41.28;;;4.60;99.90;;;;;;4993409;28;20035;-70
2023/03/09 07:24:16;;;;;;;137.77;44.33;;;4.50;99.90;;;;;;4984643;28;20027;-69
2023/03/09 07:26:42;;;;;;;120.70;41.55;;;4.50;99.90;;;;;;4988887;28;20352;-73
2023/03/09 07:29:08;;;;;;;126.60;41.58;;;4.50;99.90;;;;;;4996244;28;20039;-73
2023/03/09 07:31:34;;;;;;;125.45;42.28;;;4.50;99.90;;;;;;4986393;28;20022;-72
2023/03/09 07:33:59;;;;;;;117.57;41.53;;;4.50;99.90;;;;;;4988699;28;20034;-73
2023/03/09 07:36:25;;;;;;;129.77;44.17;;;4.50;99.90;;;;;;4990318;28;20026;-72
2023/03/09 07:38:52;;;;;;;117.57;41.55;;;4.50;99.90;;;;;;4990592;28;20038;-73
2023/03/09 07:41:18;;;;;;;165.00;47.20;;;4.60;99.90;;;;;;4984997;28;20044;-75
2023/03/09 07:43:43;;;;;;;114.60;40.88;;;4.60;99.90;;;;;;5000089;28;20512;-74
2023/03/09 07:46:17;;;;;;;116.43;40.60;;;4.60;99.90;;;;;;4984165;28;20062;-74
2023/03/09 07:48:43;;;;;;;126.72;43.08;;;4.60;99.90;;;;;;4985224;28;20029;-73
2023/03/09 07:51:09;;;;;;;116.63;42.03;;;4.60;99.90;;;;;;4996979;28;20413;-73
2023/03/09 07:53:36;;;;;;;117.75;40.63;;;4.70;99.90;;;;;;4987137;28;20023;-73
2023/03/09 07:56:03;;;;;;;116.45;41.58;;;4.70;99.90;;;;;;4994684;28;20035;-73
2023/03/09 07:58:34;;;;;;;119.25;41.67;;;4.70;99.90;;;;;;4985364;28;20030;-72
2023/03/09 08:01:00;;;;;;;116.90;43.33;;;4.70;99.90;;;;;;4984096;28;20034;-72
2023/03/09 08:03:27;;;;;;;117.50;41.75;;;4.70;99.90;;;;;;4996928;28;20472;-72
2023/03/09 08:05:55;;;;;;;110.15;40.55;;;4.70;99.90;;;;;;4983940;28;20034;-72
2023/03/09 08:08:31;;;;;;;115.57;41.17;;;4.70;99.90;;;;;;4993393;28;20033;-72
2023/03/09 08:10:57;;;;;;;113.85;40.20;;;4.70;99.90;;;;;;4997202;28;20490;-72
2023/03/09 08:13:24;;;;;;;110.63;40.42;;;4.70;99.90;;;;;;4987265;28;20130;-73
2023/03/09 08:15:50;;;;;;;117.68;41.35;;;4.70;99.90;;;;;;4990953;28;20031;-72
2023/03/09 08:18:20;;;;;;;113.50;42.20;;;4.80;99.90;;;;;;4997268;28;20034;-73
2023/03/09 08:20:46;;;;;;;106.28;38.25;;;4.80;99.90;;;;;;4988277;28;20030;-73
2023/03/09 08:23:12;;;;;;;116.40;40.08;;;4.90;99.90;;;;;;4980954;28;20026;-72
2023/03/09 08:25:39;;;;;;;109.68;40.13;;;4.80;99.90;;;;;;4993350;28;20469;-73
2023/03/09 08:28:05;;;;;;;105.43;39.42;;;4.80;99.90;;;;;;4981680;28;20024;-72
2023/03/09 08:30:31;;;;;;;99.65;35.85;;;4.80;99.90;;;;;;5003243;28;20026;-72
2023/03/09 08:32:57;;;;;;;96.25;36.15;;;4.80;99.90;;;;;;4989685;28;20066;-73
2023/03/09 08:35:27;;;;;;;115.68;38.10;;;4.90;99.90;;;;;;5010671;28;20117;-73
2023/03/09 08:37:53;;;;;;;95.38;36.05;;;4.80;99.90;;;;;;4993422;28;20022;-73
2023/03/09 08:40:19;;;;;;;96.13;36.38;;;4.90;99.90;;;;;;4993829;28;20030;-72
2023/03/09 08:42:44;;;;;;;103.78;35.83;;;4.90;99.90;;;;;;5007510;28;20026;-73
2023/03/09 08:45:11;;;;;;;94.78;38.20;;;5.00;99.90;;;;;;4994766;28;20368;-73
2023/03/09 08:47:38;;;;;;;93.05;35.30;;;5.00;99.90;;;;;;4986338;28;20031;-73
2023/03/09 08:50:04;;;;;;;102.75;36.65;;;4.90;99.90;;;;;;4986679;28;20033;-73
2023/03/09 08:52:36;;;;;;;105.85;37.92;;;4.90;99.90;;;;;;5000958;28;20121;-73
2023/03/09 08:55:02;;;;;;;84.63;34.65;;;5.00;99.90;;;;;;4983447;28;20388;-73
2023/03/09 08:57:28;;;;;;;111.25;39.33;;;5.00;99.90;;;;;;4990745;28;20030;-72
2023/03/09 08:59:54;;;;;;;89.22;37.80;;;5.00;99.90;;;;;;4984331;28;20033;-73
2023/03/09 09:02:20;;;;;;;91.22;37.33;;;5.10;99.90;;;;;;4993089;28;20580;-71
2023/03/09 09:04:46;;;;;;;95.30;37.13;;;5.10;99.90;;;;;;4999180;28;20133;-70
2023/03/09 09:07:14;;;;;;;92.65;36.80;;;5.20;99.90;;;;;;4988001;28;20030;-70
2023/03/09 09:09:40;;;;;;;92.70;35.15;;;5.10;99.90;;;;;;4991721;28;20030;-70
2023/03/09 09:12:07;;;;;;;95.72;37.15;;;4.90;99.90;;;;;;4985708;28;20072;-70
2023/03/09 09:14:33;;;;;;;93.20;34.35;;;4.80;99.90;;;;;;4986467;28;20026;-71
2023/03/09 09:17:00;;;;;;;91.10;34.95;;;4.80;99.90;;;;;;4996949;28;20029;-71
2023/03/09 09:19:26;;;;;;;100.43;37.42;;;4.90;99.90;;;;;;4995389;28;20418;-70
2023/03/09 09:21:52;;;;;;;102.53;37.28;;;5.00;99.90;;;;;;4996508;28;20034;-71
2023/03/09 09:24:18;;;;;;;101.88;36.42;;;5.00;99.90;;;;;;4982863;28;20035;-70
2023/03/09 09:26:44;;;;;;;86.10;36.05;;;5.10;99.90;;;;;;4991647;28;20029;-70
2023/03/09 09:29:11;;;;;;;99.65;36.95;;;5.10;99.90;;;;;;4997558;28;20034;-71
2023/03/09 09:31:37;;;;;;;99.38;36.67;;;5.10;99.90;;;;;;4999235;28;20068;-70
2023/03/09 09:34:03;;;;;;;84.18;34.70;;;5.10;99.90;;;;;;4990863;28;20026;-71
2023/03/09 09:36:28;;;;;;;97.28;36.33;;;5.10;99.90;;;;;;4999987;28;20029;-71
2023/03/09 09:38:54;;;;;;;95.70;36.90;;;5.10;99.90;;;;;;5006391;28;20386;-70
2023/03/09 09:41:37;;;;;;;94.25;36.80;;;5.20;99.90;;;;;;4992846;28;20034;-74
2023/03/09 09:44:08;;;;;;;88.85;35.38;;;5.30;99.90;;;;;;4989042;28;20119;-70
2023/03/09 09:46:35;;;;;;;91.60;35.72;;;5.40;99.90;;;;;;4990186;28;20019;-69
2023/03/09 09:49:03;;;;;;;86.55;36.17;;;5.40;99.90;;;;;;5002462;28;20084;-70
2023/03/09 09:51:46;;;;;;;90.18;35.20;;;5.40;99.90;;;;;;4993707;28;20027;-71
2023/03/09 09:54:30;;;;;;;89.07;35.20;;;5.40;99.90;;;;;;4995805;28;20552;-69
2023/03/09 09:56:59;;;;;;;91.78;36.55;;;5.50;99.90;;;;;;4991770;28;20026;-68
2023/03/09 09:59:40;;;;;;;94.93;36.70;;;5.50;99.90;;;;;;4992482;28;20066;-72
2023/03/09 10:02:09;;;;;;;104.45;40.92;;;5.60;99.90;;;;;;4992433;28;20061;-73
2023/03/09 10:05:05;;;;;;;99.65;40.13;;;5.60;99.90;;;;;;4997986;28;20440;-71
2023/03/09 10:07:35;;;;;;;100.75;38.85;;;5.70;99.90;;;;;;4993171;28;20057;-73
2023/03/09 10:10:06;;;;;;;82.70;35.28;;;5.70;99.90;;;;;;4990654;28;20083;-73
2023/03/09 10:12:31;;;;;;;86.80;37.88;;;5.70;99.90;;;;;;5004021;28;20023;-73
2023/03/09 10:15:11;;;;;;;90.53;38.30;;;5.80;99.90;;;;;;4999665;28;20364;-74
2023/03/09 10:17:45;;;;;;;88.20;35.65;;;5.70;99.90;;;;;;5004567;28;20039;-73
2023/03/09 10:20:23;;;;;;;91.60;36.78;;;5.80;99.90;;;;;;4988422;28;20564;-71
2023/03/09 10:22:52;;;;;;;94.32;36.97;;;5.90;99.90;;;;;;4992386;28;20046;-70
2023/03/09 10:25:20;;;;;;;93.82;36.92;;;5.70;99.90;;;;;;4988013;28;20034;-70
2023/03/09 10:27:55;;;;;;;99.53;39.42;;;5.80;99.90;;;;;;4993935;28;20027;-70
2023/03/09 10:30:30;;;;;;;87.35;36.40;;;5.80;99.90;;;;;;4997660;28;20050;-71
2023/03/09 10:33:09;;;;;;;107.43;40.83;;;5.90;99.90;;;;;;4991211;28;20121;-70
2023/03/09 10:36:03;;;;;;;90.88;38.42;;;5.90;99.90;;;;;;5001997;28;20022;-73
2023/03/09 10:38:29;;;;;;;95.43;37.70;;;5.90;99.90;;;;;;4996379;28;20038;-74
2023/03/09 10:40:56;;;;;;;91.68;36.95;;;5.90;99.90;;;;;;4989618;28;20118;-73
2023/03/09 10:43:25;;;;;;;92.00;36.70;;;5.90;99.90;;;;;;4998277;28;20042;-70
2023/03/09 10:45:51;;;;;;;86.72;37.85;;;5.90;99.90;;;;;;4974893;28;20041;-72
2023/03/09 10:48:25;;;;;;;93.65;38.15;;;5.90;99.90;;;;;;4997930;28;20014;-71
2023/03/09 10:50:59;;;;;;;96.45;39.17;;;5.90;99.90;;;;;;5008030;28;20035;-72
2023/03/09 10:53:41;;;;;;;91.57;37.03;;;6.00;99.90;;;;;;5015008;28;20030;-71
2023/03/09 10:56:29;;;;;;;111.80;39.60;;;5.90;99.90;;;;;;5009961;28;20030;-73
2023/03/09 10:59:06;;;;;;;98.40;36.35;;;5.90;99.90;;;;;;4998488;28;20239;-73
2023/03/09 11:01:35;;;;;;;102.45;38.58;;;5.80;99.90;;;;;;4999841;28;20022;-72
2023/03/09 11:04:01;;;;;;;99.95;37.63;;;5.80;99.90;;;;;;4992779;28;20020;-71
2023/03/09 11:06:26;;;;;;;102.55;38.55;;;5.80;99.90;;;;;;5010463;28;20032;-72
2023/03/09 11:08:59;;;;;;;108.88;40.97;;;5.80;99.90;;;;;;5002106;28;20019;-71
2023/03/09 11:11:26;;;;;;;;;;;5.90;99.90;;;;;;5010479;28;20022;-69
2023/03/09 11:13:53;;;;;;;93.90;37.17;;;5.80;99.90;;;;;;5003796;28;19914;-72
2023/03/09 11:16:28;;;;;;;111.10;39.58;;;6.00;99.90;;;;;;5005195;28;20050;-72
2023/03/09 11:19:08;;;;;;;98.97;38.17;;;6.00;99.90;;;;;;5000129;28;20114;-71
2023/03/09 11:21:34;;;;;;;102.68;36.75;;;6.00;99.90;;;;;;4996430;28;20084;-72
2023/03/09 11:24:02;;;;;;;102.82;37.78;;;5.90;99.90;;;;;;4998007;28;20044;-71
2023/03/09 11:26:35;;;;;;;102.18;36.33;;;6.10;99.90;;;;;;4999357;28;20058;-72
2023/03/09 11:29:32;;;;;;;103.30;36.67;;;6.00;99.90;;;;;;5008086;28;20027;-72
2023/03/09 11:31:58;;;;;;;99.60;36.83;;;6.00;99.90;;;;;;5013157;28;20054;-73
2023/03/09 11:34:35;;;;;;;112.32;40.08;;;6.10;99.90;;;;;;5007747;28;20024;-72
2023/03/09 11:37:05;;;;;;;104.32;37.05;;;5.90;99.90;;;;;;5014539;28;20030;-73
2023/03/09 11:39:35;;;;;;;117.93;41.10;;;6.00;99.90;;;;;;5010300;28;20031;-72
2023/03/09 11:42:05;;;;;;;114.22;40.28;;;6.00;99.90;;;;;;5001347;28;20135;-73
2023/03/09 11:44:36;;;;;;;105.13;40.47;;;6.10;99.90;;;;;;5000919;28;20064;-73
2023/03/09 11:47:05;;;;;;;120.32;40.75;;;6.10;99.90;;;;;;4995717;28;20019;-73
2023/03/09 11:49:31;;;;;;;119.05;41.88;;;6.10;99.90;;;;;;5005071;28;20032;-76
2023/03/09 11:51:59;;;;;;;109.80;41.33;;;6.00;99.90;;;;;;5015921;28;20028;-73
2023/03/09 11:54:36;;;;;;;130.73;42.50;;;6.00;99.90;;;;;;4980692;28;20030;-77
2023/03/09 11:57:13;;;;;;;136.45;41.15;;;6.00;99.90;;;;;;5002065;28;20050;-73
2023/03/09 11:59:43;;;;;;;113.63;39.17;;;6.10;99.90;;;;;;4994227;28;20026;-72
2023/03/09 12:02:29;;;;;;;112.95;40.65;;;6.10;99.90;;;;;;5015699;28;20593;-72
2023/03/09 12:04:55;;;;;;;117.55;38.20;;;6.00;99.90;;;;;;4992345;28;20883;-72
2023/03/09 12:07:30;;;;;;;104.22;38.38;;;6.00;99.90;;;;;;5000369;28;20022;-73
2023/03/09 12:10:24;;;;;;;133.32;42.55;;;6.10;99.90;;;;;;4999128;28;20072;-74
2023/03/09 12:13:00;;;;;;;139.73;44.80;;;6.10;99.90;;;;;;5005202;28;20445;-74
2023/03/09 12:15:34;;;;;;;113.43;40.42;;;6.10;99.90;;;;;;4992361;28;20042;-73
2023/03/09 12:18:04;;;;;;;110.35;38.83;;;6.00;99.90;;;;;;5014493;28;20068;-74
2023/03/09 12:20:34;;;;;;;125.57;42.55;;;6.10;99.90;;;;;;5015702;28;20099;-73
2023/03/09 12:23:00;;;;;;;102.32;36.42;;;6.10;99.90;;;;;;5009717;28;20391;-74
2023/03/09 12:25:28;;;;;;;116.80;38.95;;;6.10;99.90;;;;;;5021251;28;20046;-73
2023/03/09 12:28:05;;;;;;;100.78;36.65;;;6.10;99.90;;;;;;5009232;28;20024;-73
2023/03/09 12:30:40;;;;;;;119.57;38.85;;;6.10;99.90;;;;;;5020935;28;20536;-73
2023/03/09 12:33:10;;;;;;;105.90;36.58;;;6.10;99.90;;;;;;4996286;28;20027;-72
2023/03/09 12:35:41;;;;;;;109.20;38.15;;;6.10;99.90;;;;;;4997003;28;20028;-72
2023/03/09 12:38:21;;;;;;;127.77;40.23;;;6.10;99.90;;;;;;4997084;28;20137;-71